Sukran S — TCKB — position and weather

sailwx.info

Track history (hours):
 
Tides and Currents Weather Stations Pressure Air Temp Water Temp Dewpoint Dewpoint Depression Visibility Wind Speed Wind Dir Waves Ship Positions

Sukran S

Last reported at 2015-Jun-28 14:15 UTC. Time now 2015-Jul-05 19:23 UTC.
Position N 41°16' E 029°48'.

Length 108 m; draft 4.2 m.

Type: Ship. MMSI: 271000056.

Date/timePositionNaut miles runAvg speedWind from/ knotsBaromVisibWave heightAir tempDewpointWater temp
2015-Jun-28 14:15N 41°16' E 029°48'710.7
2015-Jun-28 13:33N 41°16' E 029°38'1110.9
2015-Jun-28 12:33N 41°16' E 029°23'24 7.8
2015-Jun-28 09:29N 40°59' E 028°60'5 5.3
2015-Jun-28 08:33N 40°55' E 028°60'7 7.0
2015-Jun-28 07:33N 40°50' E 029°07'17 0.4
2015-Jun-26 15:29N 40°45' E 029°28'9 9.8
2015-Jun-26 14:33N 40°43' E 029°16'1010.4
2015-Jun-26 13:33N 40°41' E 029°03'10 9.9
2015-Jun-26 12:33N 40°36' E 028°51'12 6.0
2015-Jun-26 10:30N 40°26' E 029°00'12 0.5
2015-Jun-25 08:19N 40°32' E 028°46'7 9.4
2015-Jun-25 07:33N 40°39' E 028°48'1110.2
2015-Jun-25 06:30N 40°48' E 028°55'9 9.9
2015-Jun-25 05:33N 40°58' E 028°58'  
Track history (hours):
 
Tides and Currents Weather Stations Pressure Air Temp Water Temp Dewpoint Dewpoint Depression Visibility Wind Speed Wind Dir Waves Ship Positions

Sukran S

Last reported at 2015-Jun-28 14:15 UTC. Time now 2015-Jul-05 19:23 UTC.
Position N 41°16' E 029°48'.

Length 108 m; draft 4.2 m.

Type: Ship. MMSI: 271000056.

Date/timePositionNaut miles runAvg speedWind from/ knotsBaromVisibWave heightAir tempDewpointWater temp
2015-Jun-28 14:15N 41°16' E 029°48'710.7
2015-Jun-28 13:33N 41°16' E 029°38'1110.9
2015-Jun-28 12:33N 41°16' E 029°23'24 7.8
2015-Jun-28 09:29N 40°59' E 028°60'5 5.3
2015-Jun-28 08:33N 40°55' E 028°60'7 7.0
2015-Jun-28 07:33N 40°50' E 029°07'17 0.4
2015-Jun-26 15:29N 40°45' E 029°28'9 9.8
2015-Jun-26 14:33N 40°43' E 029°16'1010.4
2015-Jun-26 13:33N 40°41' E 029°03'10 9.9
2015-Jun-26 12:33N 40°36' E 028°51'12 6.0
2015-Jun-26 10:30N 40°26' E 029°00'12 0.5
2015-Jun-25 08:19N 40°32' E 028°46'7 9.4
2015-Jun-25 07:33N 40°39' E 028°48'1110.2
2015-Jun-25 06:30N 40°48' E 028°55'9 9.9
2015-Jun-25 05:33N 40°58' E 028°58'  

Dump ship's entire track history